Time;durP1;ratioP1;P1;durP2;ratioP2;P2;SDS_P1;SDS_P2;PMS_P1;PMS_P2;Temp;Humidity;BMP_temperature;BMP_pressure;BME280_temperature;BME280_humidity;BME280_pressure;Samples;Min_cycle;Max_cycle;Signal;HPM_P1;HPM_P2
2021/07/25 00:01:56;;;;;;;0.70;0.70;;;;;;;18.95;74.88;98223.03;5143886;27;43088;-85
2021/07/25 00:04:24;;;;;;;0.70;0.70;;;;;;;18.92;75.25;98229.56;5134400;27;38711;-84
2021/07/25 00:06:51;;;;;;;0.60;0.60;;;;;;;18.89;75.88;98221.88;5150208;27;41306;-84
2021/07/25 00:09:19;;;;;;;1.10;1.07;;;;;;;18.80;76.30;98197.84;5145249;27;42648;-83
2021/07/25 00:11:48;;;;;;;0.80;0.73;;;;;;;18.75;77.09;98190.31;5150516;27;41348;-80
2021/07/25 00:14:15;;;;;;;1.73;1.10;;;;;;;18.88;76.71;98214.81;5117066;27;40197;-88
2021/07/25 00:16:43;;;;;;;1.33;1.23;;;;;;;18.77;77.17;98207.09;5124646;27;41090;-83
2021/07/25 00:19:12;;;;;;;1.13;0.90;;;;;;;18.90;78.21;98231.59;5130510;27;42976;-79
2021/07/25 00:21:39;;;;;;;1.03;0.93;;;;;;;18.89;78.95;98229.91;5141626;27;42439;-83
2021/07/25 00:24:07;;;;;;;0.90;0.90;;;;;;;18.82;78.42;98211.94;5135220;27;40316;-86
2021/07/25 00:26:37;;;;;;;1.37;1.00;;;;;;;18.83;78.93;98213.63;5115062;27;40899;-83
2021/07/25 00:29:08;;;;;;;0.73;0.73;;;;;;;18.90;78.80;98222.72;5130294;27;42662;-82
2021/07/25 00:31:36;;;;;;;0.60;0.60;;;;;;;18.86;78.61;98208.78;5139624;27;41205;-88
2021/07/25 00:34:03;;;;;;;0.80;0.50;;;;;;;18.90;78.88;98214.66;5137206;27;40174;-82
2021/07/25 00:36:32;;;;;;;0.40;0.40;;;;;;;18.89;78.07;98221.88;5128600;27;41023;-84
2021/07/25 00:39:00;;;;;;;0.83;0.60;;;;;;;18.84;77.84;98216.13;5119110;27;41911;-86
2021/07/25 00:41:27;;;;;;;1.00;0.90;;;;;;;18.82;77.56;98223.50;5123058;27;41273;-84
2021/07/25 00:43:55;;;;;;;0.63;0.57;;;;;;;18.74;77.12;98220.81;5143051;27;39113;-83
2021/07/25 00:46:24;;;;;;;0.83;0.83;;;;;;;18.74;76.82;98230.69;5131120;27;42598;-84
2021/07/25 00:48:51;;;;;;;0.93;0.93;;;;;;;18.77;76.98;98233.91;5129175;27;42991;-86
2021/07/25 00:51:19;;;;;;;0.50;0.50;;;;;;;18.69;77.04;98224.97;5120594;27;41632;-86
2021/07/25 00:53:48;;;;;;;0.73;0.73;;;;;;;18.75;76.87;98233.22;5132457;27;39000;-84
2021/07/25 00:56:16;;;;;;;0.50;0.50;;;;;;;18.61;76.77;98209.69;5151439;27;41639;-80
2021/07/25 00:58:44;;;;;;;0.50;0.50;;;;;;;18.78;76.75;98222.19;5115485;27;42757;-83
2021/07/25 01:01:13;;;;;;;0.80;0.80;;;;;;;18.73;76.91;98218.28;5150384;27;42315;-83
2021/07/25 01:03:57;;;;;;;0.70;0.63;;;;;;;18.79;76.79;98234.56;5149744;27;40189;-80
2021/07/25 01:06:35;;;;;;;0.83;0.83;;;;;;;18.79;77.73;98241.78;5133318;27;41912;-81
2021/07/25 01:09:04;;;;;;;0.57;0.57;;;;;;;18.73;77.92;98223.66;5149923;27;43983;-81
2021/07/25 01:11:37;;;;;;;0.70;0.70;;;;;;;18.68;77.95;98216.09;5132626;27;41733;-83
2021/07/25 01:14:05;;;;;;;0.60;0.60;;;;;;;18.73;77.83;98216.44;5149982;27;40193;-86
2021/07/25 01:16:33;;;;;;;1.23;0.97;;;;;;;18.75;77.44;98219.81;5142835;27;41783;-86
2021/07/25 01:19:02;;;;;;;0.87;0.87;;;;;;;18.65;77.80;98203.03;5144260;27;42799;-80
2021/07/25 01:21:31;;;;;;;0.50;0.50;;;;;;;18.64;77.89;98209.38;5139283;27;41685;-78
2021/07/25 01:23:59;;;;;;;0.67;0.67;;;;;;;18.64;77.45;98215.59;5130159;27;38594;-85
2021/07/25 01:26:29;;;;;;;0.80;0.80;;;;;;;18.74;77.70;98238.75;5112527;27;41857;-84
2021/07/25 01:28:59;;;;;;;0.77;0.70;;;;;;;18.72;77.87;98244.28;5127528;27;41852;-86
2021/07/25 01:31:31;;;;;;;0.77;0.77;;;;;;;18.72;77.89;98248.78;5137868;27;42399;-83
2021/07/25 01:34:01;;;;;;;0.87;0.87;;;;;;;18.70;78.17;98253.47;5133130;27;39433;-83
2021/07/25 01:36:29;;;;;;;0.77;0.77;;;;;;;18.70;78.89;98246.28;5150726;27;42129;-82
2021/07/25 01:38:58;;;;;;;0.97;0.93;;;;;;;18.69;78.60;98239.22;5144323;27;42078;-86
2021/07/25 01:41:26;;;;;;;0.83;0.70;;;;;;;18.70;77.85;98240.91;5137163;27;41894;-85
2021/07/25 01:43:55;;;;;;;0.93;0.90;;;;;;;18.67;78.00;98225.97;5118469;27;39337;-77
2021/07/25 01:46:22;;;;;;;0.67;0.67;;;;;;;18.71;77.72;98226.50;5111533;27;41636;-84
2021/07/25 01:48:50;;;;;;;0.60;0.60;;;;;;;18.71;77.34;98231.84;5128946;27;43039;-83
2021/07/25 01:51:18;;;;;;;0.70;0.70;;;;;;;18.50;77.38;98200.09;5111225;27;41458;-82
2021/07/25 01:53:45;;;;;;;0.53;0.53;;;;;;;18.69;77.08;98231.19;5127855;27;39931;-87
2021/07/25 01:56:14;;;;;;;0.50;0.43;;;;;;;18.65;76.81;98222.63;5128271;27;41830;-86
2021/07/25 01:58:42;;;;;;;0.73;0.73;;;;;;;18.63;76.67;98218.44;5132190;27;43047;-85
2021/07/25 02:01:10;;;;;;;0.90;0.90;;;;;;;18.60;76.69;98224.94;5132750;27;41472;-81
2021/07/25 02:03:37;;;;;;;1.00;0.70;;;;;;;18.58;77.12;98226.94;5138090;27;40216;-83
2021/07/25 02:06:05;;;;;;;1.70;1.20;;;;;;;18.45;77.27;98215.81;5126018;27;41852;-82
2021/07/25 02:08:33;;;;;;;0.97;0.93;;;;;;;18.61;77.41;98253.44;5113653;27;42746;-84
2021/07/25 02:11:00;;;;;;;0.80;0.80;;;;;;;18.60;77.41;98256.28;5112111;27;41198;-85
2021/07/25 02:13:29;;;;;;;0.70;0.70;;;;;;;18.59;77.23;98255.44;5111502;27;39206;-81
2021/07/25 02:15:56;;;;;;;0.50;0.50;;;;;;;18.56;77.49;98241.47;5125235;27;40974;-85
2021/07/25 02:18:24;;;;;;;0.97;0.97;;;;;;;18.41;77.14;98224.34;5118737;27;42290;-81
2021/07/25 02:20:52;;;;;;;0.60;0.60;;;;;;;18.53;77.37;98241.81;5127091;27;41131;-87
2021/07/25 02:23:19;;;;;;;0.73;0.73;;;;;;;18.59;76.80;98243.88;5136163;27;38887;-77
2021/07/25 02:25:47;;;;;;;0.93;0.70;;;;;;;18.52;76.72;98237.47;5135072;27;41783;-81
2021/07/25 02:28:14;;;;;;;0.60;0.60;;;;;;;18.63;76.79;98247.94;5112162;27;42839;-81
2021/07/25 02:30:43;;;;;;;0.87;0.87;;;;;;;18.65;76.49;98249.47;5132342;27;41211;-81
2021/07/25 02:33:11;;;;;;;0.67;0.60;;;;;;;18.67;76.30;98245.78;5144987;27;38903;-82
2021/07/25 02:35:38;;;;;;;1.27;1.17;;;;;;;18.67;76.38;98254.63;5149827;27;42746;-86
2021/07/25 02:38:06;;;;;;;0.40;0.40;;;;;;;18.72;75.95;98244.28;5131284;27;41733;-89
2021/07/25 02:40:33;;;;;;;0.80;0.80;;;;;;;18.64;76.28;98214.75;5139626;27;42384;-84
2021/07/25 02:43:02;;;;;;;0.70;0.70;;;;;;;18.76;75.81;98239.44;5127522;27;40041;-84
2021/07/25 02:45:29;;;;;;;0.40;0.40;;;;;;;18.67;76.02;98231.34;5137975;27;43002;-85
2021/07/25 02:47:59;;;;;;;0.50;0.50;;;;;;;18.67;76.13;98230.50;5117679;27;41711;-84
2021/07/25 02:50:26;;;;;;;0.63;0.63;;;;;;;18.80;75.89;98254.19;5128233;27;42227;-82
2021/07/25 02:52:54;;;;;;;0.77;0.77;;;;;;;18.72;75.97;98228.19;5133456;27;40875;-85
2021/07/25 02:55:21;;;;;;;0.70;0.70;;;;;;;18.88;75.57;98246.19;5147971;27;41865;-86
2021/07/25 02:57:49;;;;;;;0.77;0.70;;;;;;;18.88;75.99;98241.66;5135130;27;41765;-85
2021/07/25 03:00:18;;;;;;;0.67;0.60;;;;;;;18.76;75.79;98224.19;5152501;27;42257;-82
2021/07/25 03:02:45;;;;;;;0.63;0.63;;;;;;;18.88;75.87;98233.59;5117344;27;38890;-82
2021/07/25 03:05:15;;;;;;;0.87;0.87;;;;;;;18.99;76.41;98246.72;5126420;27;40720;-80
2021/07/25 03:07:42;;;;;;;0.90;0.70;;;;;;;18.95;76.70;98242.66;5142606;27;42572;-82
2021/07/25 03:10:11;;;;;;;0.73;0.73;;;;;;;19.00;76.59;98248.41;5119280;27;42091;-85
2021/07/25 03:12:38;;;;;;;0.50;0.50;;;;;;;19.04;76.27;98242.72;5150740;27;40130;-84
2021/07/25 03:15:07;;;;;;;0.70;0.70;;;;;;;19.05;76.67;98252.41;5117560;27;41079;-83
2021/07/25 03:17:34;;;;;;;0.67;0.60;;;;;;;19.06;76.84;98254.09;5152260;27;43106;-83
2021/07/25 03:20:02;;;;;;;0.93;0.70;;;;;;;18.92;76.52;98244.81;5134355;27;41465;-83
2021/07/25 03:22:36;;;;;;;0.50;0.50;;;;;;;19.04;76.60;98265.00;5135183;27;40464;-79
2021/07/25 03:25:04;;;;;;;0.60;0.60;;;;;;;19.05;76.30;98266.66;5134046;27;40755;-84
2021/07/25 03:27:31;;;;;;;0.73;0.73;;;;;;;18.98;76.53;98250.41;5151383;27;43356;-86
2021/07/25 03:29:59;;;;;;;0.60;0.60;;;;;;;19.10;76.27;98263.50;5152949;27;42303;-85
2021/07/25 03:32:27;;;;;;;1.33;1.23;;;;;;;18.99;76.23;98241.34;5151086;27;40409;-82
2021/07/25 03:34:55;;;;;;;0.67;0.67;;;;;;;19.14;76.23;98262.19;5134852;27;41245;-84
2021/07/25 03:37:23;;;;;;;0.77;0.70;;;;;;;19.06;76.47;98248.72;5134012;27;42196;-78
2021/07/25 03:39:54;;;;;;;1.03;0.93;;;;;;;19.18;76.45;98271.56;5133924;27;41409;-83
2021/07/25 03:42:22;;;;;;;0.80;0.80;;;;;;;19.16;76.47;98266.41;5151394;27;40884;-80
2021/07/25 03:44:50;;;;;;;0.83;0.60;;;;;;;19.21;77.10;98276.63;5134762;27;41934;-82
2021/07/25 03:47:18;;;;;;;0.80;0.53;;;;;;;19.19;76.95;98271.41;5134965;27;42751;-85
2021/07/25 03:49:46;;;;;;;1.20;0.90;;;;;;;19.22;76.83;98272.94;5134465;27;42474;-83
2021/07/25 03:52:14;;;;;;;0.67;0.67;;;;;;;19.25;77.17;98269.94;5152267;27;39150;-79
2021/07/25 03:54:43;;;;;;;0.53;0.53;;;;;;;19.28;76.71;98273.13;5151445;27;40827;-83
2021/07/25 03:57:12;;;;;;;0.83;0.83;;;;;;;19.31;77.06;98280.00;5151274;27;42863;-79
2021/07/25 03:59:40;;;;;;;0.63;0.63;;;;;;;19.33;77.52;98270.78;5153498;27;43197;-82
2021/07/25 04:02:08;;;;;;;0.90;0.90;;;;;;;19.34;77.27;98271.63;5151043;27;39988;-83
2021/07/25 04:04:36;;;;;;;0.70;0.60;;;;;;;19.35;77.29;98257.19;5151985;27;40782;-83
2021/07/25 04:07:04;;;;;;;0.90;0.87;;;;;;;19.30;77.01;98251.47;5150974;27;43082;-83
2021/07/25 04:09:31;;;;;;;0.70;0.70;;;;;;;19.36;77.25;98267.75;5134210;27;41618;-84
2021/07/25 04:11:59;;;;;;;1.10;1.00;;;;;;;19.33;77.14;98248.44;5151431;27;39008;-81
2021/07/25 04:14:28;;;;;;;0.60;0.60;;;;;;;19.25;77.08;98235.88;5151043;27;40928;-83
2021/07/25 04:16:56;;;;;;;0.67;0.67;;;;;;;19.41;76.84;98264.56;5151216;27;42082;-81
2021/07/25 04:19:23;;;;;;;1.10;0.70;;;;;;;19.42;77.00;98252.81;5132881;27;42579;-86
2021/07/25 04:21:51;;;;;;;0.47;0.43;;;;;;;19.45;77.39;98263.22;5150896;27;38951;-86
2021/07/25 04:24:19;;;;;;;0.77;0.77;;;;;;;19.47;77.25;98261.22;5133288;27;40741;-84
2021/07/25 04:26:47;;;;;;;0.53;0.47;;;;;;;19.48;77.04;98262.91;5133742;27;43270;-81
2021/07/25 04:29:15;;;;;;;0.73;0.70;;;;;;;19.53;76.75;98249.88;5133764;27;42106;-84
2021/07/25 04:31:46;;;;;;;0.50;0.50;;;;;;;19.44;76.57;98228.47;5150343;27;40012;-82
2021/07/25 04:34:14;;;;;;;0.73;0.73;;;;;;;19.57;76.36;98240.44;5151898;27;41794;-84
2021/07/25 04:36:43;;;;;;;0.87;0.87;;;;;;;19.60;76.30;98242.81;5151269;27;42632;-83
2021/07/25 04:39:12;;;;;;;0.40;0.40;;;;;;;19.42;76.51;98209.84;5151002;27;42598;-83
2021/07/25 04:41:44;;;;;;;0.60;0.60;;;;;;;19.50;76.92;98238.59;5150302;27;38931;-82
2021/07/25 04:44:20;;;;;;;0.70;0.70;;;;;;;19.34;77.18;98228.66;5133268;27;40960;-82
2021/07/25 04:46:53;;;;;;;0.70;0.70;;;;;;;19.26;77.06;98223.28;5149710;27;43125;-85
2021/07/25 04:49:22;;;;;;;0.60;0.60;;;;;;;19.34;76.98;98263.56;5134434;27;41165;-85
2021/07/25 04:51:53;;;;;;;1.10;1.00;;;;;;;19.22;77.08;98254.13;5150433;27;38876;-89
2021/07/25 04:54:22;;;;;;;1.23;1.00;;;;;;;19.30;77.22;98278.31;5133649;27;41669;-83
2021/07/25 04:56:57;;;;;;;0.67;0.67;;;;;;;19.31;77.10;98269.25;5132582;27;41744;-85
2021/07/25 04:59:29;;;;;;;0.50;0.50;;;;;;;19.46;77.12;98259.53;5151529;27;43153;-83
2021/07/25 05:02:03;;;;;;;0.60;0.60;;;;;;;19.64;76.82;98271.03;5132801;27;39148;-80
2021/07/25 05:04:32;;;;;;;0.77;0.77;;;;;;;19.88;76.02;98269.34;5133342;27;41015;-81
2021/07/25 05:07:01;;;;;;;0.87;0.77;;;;;;;20.06;76.15;98261.91;5151896;27;42966;-85
2021/07/25 05:09:29;;;;;;;0.77;0.77;;;;;;;20.29;75.55;98273.63;5150540;27;42455;-87
2021/07/25 05:12:01;;;;;;;0.73;0.70;;;;;;;20.43;75.38;98281.03;5150691;27;39791;-87
2021/07/25 05:14:35;;;;;;;0.43;0.43;;;;;;;20.43;75.10;98278.34;5151190;27;41762;-85
2021/07/25 05:17:13;;;;;;;1.40;1.17;;;;;;;20.35;75.31;98282.88;5150019;27;43784;-84
2021/07/25 05:19:53;;;;;;;0.90;0.90;;;;;;;20.30;75.40;98274.47;5150180;27;42559;-79
2021/07/25 05:22:32;;;;;;;0.70;0.70;;;;;;;20.26;75.33;98270.47;5132524;27;40335;-87
2021/07/25 05:25:00;;;;;;;0.70;0.70;;;;;;;20.37;75.39;98281.72;5150561;27;41727;-85
2021/07/25 05:27:36;;;;;;;1.60;0.80;;;;;;;20.41;74.97;98287.59;5131573;27;41681;-80
2021/07/25 05:30:03;;;;;;;0.73;0.70;;;;;;;20.40;74.98;98277.84;5149502;27;41544;-82
2021/07/25 05:32:32;;;;;;;0.77;0.60;;;;;;;20.60;74.96;98297.13;5150320;27;40196;-86
2021/07/25 05:35:00;;;;;;;1.07;0.70;;;;;;;20.58;74.97;98278.47;5133568;27;40567;-82
2021/07/25 05:37:28;;;;;;;0.70;0.70;;;;;;;20.71;74.92;98294.06;5131401;27;42653;-82
2021/07/25 05:39:55;;;;;;;0.80;0.80;;;;;;;20.58;74.47;98283.00;5149884;27;41152;-90
2021/07/25 05:42:23;;;;;;;0.90;0.53;;;;;;;20.63;74.52;98296.78;5131944;27;40051;-86
2021/07/25 05:44:51;;;;;;;0.80;0.63;;;;;;;20.51;74.67;98282.03;5150822;27;43220;-83
2021/07/25 05:47:19;;;;;;;0.87;0.77;;;;;;;20.64;74.72;98299.31;5134158;27;43104;-85
2021/07/25 05:49:48;;;;;;;2.20;1.43;;;;;;;20.59;74.40;98273.94;5151535;27;43227;-85
2021/07/25 05:52:16;;;;;;;0.80;0.77;;;;;;;20.87;74.50;98283.25;5151761;27;40991;-85
2021/07/25 05:54:44;;;;;;;0.60;0.60;;;;;;;20.99;74.01;98289.09;5150363;27;43287;-89
2021/07/25 05:57:12;;;;;;;1.00;1.00;;;;;;;20.96;73.87;98276.81;5149993;27;43293;-83
2021/07/25 05:59:39;;;;;;;1.03;0.93;;;;;;;21.06;73.79;98287.34;5132772;27;41280;-80
2021/07/25 06:02:07;;;;;;;0.70;0.70;;;;;;;20.89;73.75;98254.31;5149271;27;40117;-85
2021/07/25 06:04:35;;;;;;;1.20;1.03;;;;;;;20.99;73.94;98259.47;5133046;27;40716;-83
2021/07/25 06:07:04;;;;;;;0.80;0.80;;;;;;;21.27;73.50;98290.28;5151260;27;42588;-86
2021/07/25 06:09:32;;;;;;;0.53;0.53;;;;;;;21.40;73.93;98301.31;5149097;27;42041;-78
2021/07/25 06:12:00;;;;;;;1.17;0.97;;;;;;;21.45;73.94;98309.72;5132569;27;40114;-85
2021/07/25 06:14:27;;;;;;;1.30;1.20;;;;;;;21.42;73.38;98309.22;5131630;27;42147;-84
2021/07/25 06:16:55;;;;;;;0.90;0.90;;;;;;;21.38;73.22;98321.41;5150401;27;42565;-88
2021/07/25 06:19:22;;;;;;;0.60;0.60;;;;;;;21.47;73.13;98312.25;5149716;27;42217;-81
2021/07/25 06:21:50;;;;;;;1.07;0.73;;;;;;;21.66;72.81;98314.47;5149773;27;38896;-81
2021/07/25 06:24:19;;;;;;;1.37;1.23;;;;;;;21.90;72.13;98296.41;5148171;27;40658;-89
2021/07/25 06:26:47;;;;;;;0.80;0.80;;;;;;;22.17;71.76;98315.59;5132101;27;41758;-83
2021/07/25 06:29:15;;;;;;;0.80;0.70;;;;;;;22.33;71.84;98313.78;5133065;27;41564;-86
2021/07/25 06:31:43;;;;;;;0.90;0.90;;;;;;;22.46;71.44;98301.34;5152271;27;38981;-81
2021/07/25 06:34:10;;;;;;;1.50;1.40;;;;;;;22.56;71.30;98293.78;5135622;27;41176;-84
2021/07/25 06:36:38;;;;;;;0.60;0.60;;;;;;;22.64;70.89;98281.22;5152059;27;42726;-80
2021/07/25 06:39:07;;;;;;;4.50;0.93;;;;;;;22.80;71.27;98302.66;5152980;27;42493;-79
2021/07/25 06:41:36;;;;;;;0.83;0.80;;;;;;;22.83;70.99;98302.31;5135299;27;39891;-81
2021/07/25 06:44:04;;;;;;;1.33;0.90;;;;;;;22.80;70.44;98297.28;5134954;27;41946;-80
2021/07/25 06:46:34;;;;;;;1.23;1.00;;;;;;;22.76;71.25;98304.06;5153007;27;42745;-88
2021/07/25 06:49:02;;;;;;;1.57;1.47;;;;;;;22.65;71.42;98280.19;5135240;27;41389;-85
2021/07/25 06:51:30;;;;;;;0.63;0.63;;;;;;;22.60;71.37;98294.28;5136081;27;39171;-83
2021/07/25 06:53:57;;;;;;;1.50;1.30;;;;;;;22.84;71.48;98306.69;5134420;27;41064;-87
2021/07/25 06:56:25;;;;;;;1.07;0.90;;;;;;;22.92;70.70;98293.06;5135917;27;42773;-79
2021/07/25 06:58:54;;;;;;;0.97;0.97;;;;;;;23.16;70.12;98284.66;5148657;27;41144;-82
2021/07/25 07:01:24;;;;;;;1.40;1.00;;;;;;;23.47;69.08;98302.47;5138845;27;39481;-80
2021/07/25 07:03:51;;;;;;;0.80;0.80;;;;;;;23.49;68.47;98297.72;5122898;27;40658;-80
2021/07/25 07:06:19;;;;;;;1.47;1.00;;;;;;;23.52;68.44;98283.84;5153349;27;43905;-83
2021/07/25 07:08:46;;;;;;;1.47;1.20;;;;;;;23.73;68.27;98310.06;5150909;27;42306;-84
2021/07/25 07:11:14;;;;;;;1.43;1.33;;;;;;;23.72;67.47;98305.69;5138546;27;40927;-83
2021/07/25 07:13:42;;;;;;;1.43;0.87;;;;;;;23.93;67.62;98303.81;5123393;27;41292;-80
2021/07/25 07:16:11;;;;;;;0.87;0.83;;;;;;;24.13;66.93;98303.13;5121046;27;42186;-82
2021/07/25 07:18:39;;;;;;;1.53;1.43;;;;;;;24.31;67.34;98303.53;5130956;27;41423;-82
2021/07/25 07:21:06;;;;;;;1.30;1.00;;;;;;;24.44;67.75;98284.69;5135780;27;39181;-82
2021/07/25 07:23:34;;;;;;;1.30;1.20;;;;;;;24.82;67.57;98295.13;5134418;27;42249;-82
2021/07/25 07:26:01;;;;;;;5.80;1.53;;;;;;;25.44;66.89;98292.28;5130626;27;43036;-81
2021/07/25 07:28:30;;;;;;;1.20;1.10;;;;;;;26.57;62.22;98304.13;5131057;27;42473;-81
2021/07/25 07:30:57;;;;;;;1.87;1.40;;;;;;;27.95;57.11;98319.06;5147888;27;40141;-80
2021/07/25 07:33:27;;;;;;;1.03;0.93;;;;;;;29.54;53.42;98335.63;5132106;27;40731;-81
2021/07/25 07:35:55;;;;;;;0.93;0.93;;;;;;;30.93;49.96;98329.66;5149697;27;43111;-81
2021/07/25 07:38:22;;;;;;;0.90;0.87;;;;;;;32.28;47.62;98336.50;5151644;27;42296;-82
2021/07/25 07:40:50;;;;;;;1.40;1.30;;;;;;;32.60;45.68;98353.22;5132995;27;40119;-83
2021/07/25 07:43:20;;;;;;;2.10;1.80;;;;;;;32.13;46.58;98348.03;5127406;27;41896;-84
2021/07/25 07:45:48;;;;;;;1.27;1.17;;;;;;;31.15;47.99;98326.34;5126066;27;43397;-85
2021/07/25 07:48:18;;;;;;;0.83;0.83;;;;;;;30.26;50.36;98331.88;5119432;27;42567;-83
2021/07/25 07:50:47;;;;;;;1.13;1.03;;;;;;;29.24;52.09;98311.00;5129409;27;39015;-84
2021/07/25 07:53:18;;;;;;;1.03;0.90;;;;;;;28.69;54.01;98321.84;5145615;27;41640;-81
2021/07/25 07:55:46;;;;;;;1.10;1.00;;;;;;;28.45;54.52;98315.34;5112102;27;41996;-83
2021/07/25 07:58:14;;;;;;;1.40;1.30;;;;;;;28.74;53.96;98308.38;5145854;27;42489;-82
2021/07/25 08:00:42;;;;;;;1.50;1.40;;;;;;;29.07;53.33;98296.28;5150517;27;39982;-84
2021/07/25 08:03:09;;;;;;;1.00;1.00;;;;;;;29.54;52.31;98295.53;5130322;27;40678;-82
2021/07/25 08:05:37;;;;;;;1.93;1.67;;;;;;;29.67;50.74;98319.88;5112476;27;41953;-82
2021/07/25 08:08:07;;;;;;;1.20;1.10;;;;;;;29.58;51.87;98326.75;5131162;27;41590;-85
2021/07/25 08:10:35;;;;;;;1.10;1.10;;;;;;;28.95;51.36;98299.78;5129134;27;39078;-85
2021/07/25 08:13:03;;;;;;;1.63;1.07;;;;;;;28.59;53.15;98313.34;5128691;27;42019;-83
2021/07/25 08:15:31;;;;;;;1.53;1.30;;;;;;;28.22;55.17;98291.47;5113304;27;41668;-83
2021/07/25 08:17:59;;;;;;;1.80;1.40;;;;;;;28.07;54.72;98301.81;5125218;27;43775;-83
2021/07/25 08:20:27;;;;;;;1.40;1.30;;;;;;;27.95;54.87;98298.13;5133585;27;39204;-84
2021/07/25 08:22:55;;;;;;;1.10;1.00;;;;;;;28.06;54.97;98299.34;5150063;27;41545;-83
2021/07/25 08:25:24;;;;;;;1.83;1.33;;;;;;;28.54;54.14;98311.31;5128745;27;41603;-85
2021/07/25 08:27:52;;;;;;;1.47;1.17;;;;;;;29.15;53.27;98309.66;5129706;27;42366;-83
2021/07/25 08:30:20;;;;;;;1.10;1.00;;;;;;;29.87;49.80;98297.78;5127588;27;38839;-84
2021/07/25 08:32:59;;;;;;;1.30;1.20;;;;;;;31.02;48.09;98321.94;5135032;27;42119;-84
2021/07/25 08:35:27;;;;;;;1.30;1.20;;;;;;;30.46;48.12;98276.88;5146512;27;42045;-82
2021/07/25 08:37:55;;;;;;;1.70;1.50;;;;;;;31.19;47.39;98322.03;5133100;27;41599;-83
2021/07/25 08:40:25;;;;;;;2.20;1.60;;;;;;;32.52;45.58;98350.91;5132742;27;39817;-84
2021/07/25 08:43:05;;;;;;;1.47;1.37;;;;;;;33.61;43.72;98320.94;5132732;27;41835;-84
2021/07/25 08:45:34;;;;;;;2.40;1.30;;;;;;;35.21;40.09;98358.41;5132353;27;42042;-85
2021/07/25 08:48:04;;;;;;;1.90;1.40;;;;;;;36.27;36.77;98385.59;5121023;27;41994;-84
2021/07/25 08:50:34;;;;;;;2.10;2.00;;;;;;;36.44;37.31;98352.25;5111806;27;39380;-83
2021/07/25 08:53:05;;;;;;;1.27;1.17;;;;;;;38.00;34.68;98380.63;5111866;27;40670;-84
2021/07/25 08:55:35;;;;;;;1.70;1.60;;;;;;;38.64;32.89;98346.47;5126270;27;41985;-86
2021/07/25 08:58:08;;;;;;;1.70;1.60;;;;;;;39.57;31.67;98385.97;5110679;27;41253;-84
2021/07/25 09:00:37;;;;;;;1.90;1.70;;;;;;;39.90;31.04;98381.44;5109013;27;39234;-83
2021/07/25 09:03:08;;;;;;;1.70;1.60;;;;;;;40.03;30.78;98377.91;5111820;27;42944;-83
2021/07/25 09:05:36;;;;;;;2.42;2.17;;;;;;;39.24;31.66;98360.00;5114876;27;42243;-84
2021/07/25 09:08:05;;;;;;;1.70;1.60;;;;;;;38.29;32.70;98382.69;5123407;27;41718;-84
2021/07/25 09:10:33;;;;;;;1.13;1.10;;;;;;;37.68;33.49;98360.88;5110292;27;40251;-83
2021/07/25 09:13:03;;;;;;;1.47;1.37;;;;;;;37.46;33.05;98380.56;5133588;27;42671;-84
2021/07/25 09:15:33;;;;;;;1.47;1.37;;;;;;;36.68;34.37;98358.03;5118875;27;42804;-85
2021/07/25 09:18:03;;;;;;;2.17;2.00;;;;;;;36.08;35.30;98337.56;5122247;27;42385;-84
2021/07/25 09:20:34;;;;;;;1.70;1.60;;;;;;;35.81;36.79;98337.78;5129403;27;39516;-83
2021/07/25 09:23:14;;;;;;;1.90;1.73;;;;;;;35.81;35.77;98348.81;5145215;27;42032;-86
2021/07/25 09:25:45;;;;;;;1.90;1.40;;;;;;;35.74;36.53;98342.69;5144761;27;42114;-85
2021/07/25 09:28:26;;;;;;;1.40;1.30;;;;;;;35.81;36.71;98337.78;5131611;27;41249;-84
2021/07/25 09:30:55;;;;;;;1.50;1.40;;;;;;;35.84;36.58;98347.44;5130719;27;39091;-84
2021/07/25 09:33:33;;;;;;;1.53;1.43;;;;;;;35.85;37.35;98343.59;5136126;27;40948;-84
2021/07/25 09:36:11;;;;;;;1.40;1.30;;;;;;;35.55;37.10;98349.78;5149599;27;42602;-89
2021/07/25 09:38:41;;;;;;;1.77;1.67;;;;;;;35.07;37.39;98342.63;5132047;27;42683;-87
2021/07/25 09:41:22;;;;;;;1.33;1.20;;;;;;;34.59;37.91;98348.06;5145277;27;39966;-85
2021/07/25 09:44:08;;;;;;;1.63;1.30;;;;;;;34.63;38.85;98336.50;5111944;27;42226;-85
2021/07/25 09:46:48;;;;;;;1.50;1.37;;;;;;;34.16;39.03;98339.94;5110880;27;42418;-87
2021/07/25 09:49:18;;;;;;;1.43;1.33;;;;;;;33.76;39.33;98345.84;5131907;27;41503;-85
2021/07/25 09:51:48;;;;;;;1.63;1.53;;;;;;;33.31;40.30;98332.38;5133896;27;38816;-86
2021/07/25 09:54:16;;;;;;;1.53;1.43;;;;;;;33.08;40.63;98319.69;5132924;27;42062;-86
2021/07/25 09:56:44;;;;;;;1.30;1.20;;;;;;;33.15;40.78;98323.06;5171094;27;42345;-86
2021/07/25 09:59:27;;;;;;;1.33;1.23;;;;;;;33.08;41.57;98312.28;5172895;27;43305;-85
2021/07/25 10:01:55;;;;;;;1.40;1.30;;;;;;;33.25;41.88;98314.19;5150061;27;39746;-85
2021/07/25 10:04:24;;;;;;;1.83;1.30;;;;;;;33.18;41.07;98320.66;5148845;27;40401;-85
2021/07/25 10:06:54;;;;;;;2.03;1.50;;;;;;;34.05;38.51;98324.44;5149707;27;42208;-84
2021/07/25 10:09:23;;;;;;;1.40;1.23;;;;;;;34.83;37.63;98328.44;5151048;27;41104;-84
2021/07/25 10:11:58;;;;;;;1.30;1.20;;;;;;;35.74;37.30;98326.16;5165741;27;41734;-85
2021/07/25 10:14:29;;;;;;;1.83;1.73;;;;;;;36.59;37.37;98326.59;5157257;27;40677;-84
2021/07/25 10:17:01;;;;;;;1.43;1.33;;;;;;;37.33;34.90;98343.31;5134919;27;42669;-85
2021/07/25 10:19:39;;;;;;;1.40;1.30;;;;;;;38.03;32.67;98352.41;5144781;27;42725;-85
2021/07/25 10:22:10;;;;;;;1.30;1.20;;;;;;;37.58;32.37;98364.50;5137426;27;38520;-83
2021/07/25 10:24:40;;;;;;;1.40;1.30;;;;;;;36.84;31.61;98356.13;5146278;27;42826;-83
2021/07/25 10:27:08;;;;;;;1.30;1.20;;;;;;;36.64;32.77;98363.25;5135869;27;42691;-84
2021/07/25 10:29:41;;;;;;;1.27;1.17;;;;;;;37.56;31.68;98363.13;5153472;27;42377;-84
2021/07/25 10:32:11;;;;;;;1.53;1.43;;;;;;;37.51;31.02;98365.91;5136240;27;39794;-84
2021/07/25 10:34:40;;;;;;;1.27;1.20;;;;;;;37.28;31.87;98351.63;5122920;27;41695;-84
2021/07/25 10:37:10;;;;;;;1.37;1.27;;;;;;;37.49;32.09;98346.00;5135018;27;42806;-83
2021/07/25 10:39:43;;;;;;;1.23;1.13;;;;;;;37.86;30.35;98362.16;5130856;27;41684;-83
2021/07/25 10:42:14;;;;;;;1.30;1.20;;;;;;;38.15;31.16;98365.06;5145867;27;39804;-83
2021/07/25 10:44:44;;;;;;;2.40;1.70;;;;;;;38.91;29.12;98362.53;5130845;27;42079;-83
2021/07/25 10:47:27;;;;;;;1.50;1.40;;;;;;;39.10;28.08;98393.94;5119714;27;43952;-83
2021/07/25 10:50:03;;;;;;;1.50;1.40;;;;;;;37.96;30.09;98374.00;5126219;27;41334;-84
2021/07/25 10:53:05;;;;;;;1.70;1.60;;;;;;;37.84;29.45;98373.50;5153464;27;40124;-84
2021/07/25 10:55:49;;;;;;;1.33;1.23;;;;;;;38.21;30.00;98370.28;5151932;27;41145;-84
2021/07/25 10:58:19;;;;;;;1.67;1.57;;;;;;;37.94;29.63;98365.19;5120373;27;41867;-86
2021/07/25 11:00:53;;;;;;;1.77;1.67;;;;;;;37.56;30.04;98380.53;5113564;27;41126;-85
2021/07/25 11:03:45;;;;;;;1.80;1.70;;;;;;;36.96;31.24;98370.44;5114464;27;38930;-84
2021/07/25 11:06:19;;;;;;;1.50;1.40;;;;;;;36.30;31.57;98370.44;5128411;27;40753;-84
2021/07/25 11:08:50;;;;;;;1.63;1.43;;;;;;;35.44;32.36;98353.59;5151867;27;43068;-84
2021/07/25 11:11:51;;;;;;;1.50;1.40;;;;;;;34.65;33.38;98350.84;5134446;27;41443;-84
2021/07/25 11:15:04;;;;;;;1.50;1.40;;;;;;;34.22;35.11;98341.66;5124193;27;40159;-84
2021/07/25 11:18:02;;;;;;;1.70;1.60;;;;;;;34.19;37.72;98309.19;5131563;27;41671;-83
2021/07/25 11:20:42;;;;;;;1.27;1.17;;;;;;;34.43;35.22;98316.03;5129147;27;41867;-86
2021/07/25 11:23:31;;;;;;;1.17;1.17;;;;;;;34.47;34.30;98343.84;5151609;27;43272;-85
2021/07/25 11:25:59;;;;;;;1.23;1.20;;;;;;;34.24;34.98;98343.06;5152696;27;40632;-83
2021/07/25 11:28:41;;;;;;;1.40;1.30;;;;;;;34.18;35.21;98337.75;5147922;27;41281;-84
2021/07/25 11:31:10;;;;;;;1.50;1.40;;;;;;;34.06;35.26;98334.34;5145416;27;42809;-86
2021/07/25 11:33:59;;;;;;;1.30;1.20;;;;;;;33.91;36.26;98329.53;5114360;27;41513;-84
2021/07/25 11:36:27;;;;;;;1.60;1.47;;;;;;;33.74;36.28;98318.63;5146076;27;40241;-85
2021/07/25 11:38:56;;;;;;;1.37;1.33;;;;;;;33.77;36.55;98318.13;5151188;27;42022;-85
2021/07/25 11:41:26;;;;;;;1.30;1.20;;;;;;;33.96;35.33;98337.00;5147752;27;43026;-84
2021/07/25 11:43:58;;;;;;;1.30;1.20;;;;;;;34.08;34.92;98333.00;5121766;27;41329;-84
2021/07/25 11:46:29;;;;;;;1.37;1.20;;;;;;;34.25;35.30;98324.63;5144325;27;40122;-84
2021/07/25 11:49:16;;;;;;;1.27;1.17;;;;;;;34.70;35.95;98315.13;5143024;27;40976;-83